»·PEaware :: N8055M KOTH-KFOT

N8055M :: KOTH-KFOT

FLIGHT INFORMATION

Flight Status: Arrived
Operator: Privately registered:
United States
More flights under this callsign
Pilot: Jim P. (2486)
Aircraft: CESSNA 310
(C310)
More flights by this aircraft type
Origin: KOTH North Bend Mun
United States
Destination: KFOT Rohnerville
United States
More flights between these airports :: More routes between these airports
Route: +OTH6 V27 CEC V494 FOT
File this flight plan on PilotEdge
Remarks:
Altitude:
(Current/Filed)
7,000ft
Speed:
(Current/Filed)
200kts
Departed: 03-May-18 06:48 PM
Arrived: 03-May-18 08:05 PM
Distance/Time
Traveled:
172nm/1:17
Distance/Time
To Go:
Arrived

Flight Plot

Page will automatically refresh every two minutes.

Flight plan parsing failed; only flown route is shown


Map Options




Map Legend


Flown Route
Filed Route
Departure Airport
Arrival Airport
Navaid (VOR, NDB)
Fix

Horizontal Profiles

Position Reports

Time Latitude Longitude Heading Altitude Ground
Speed
03-May-18 18:22 43.416624 -124.246595 238 11ft 0kts
03-May-18 18:23 43.416624 -124.246595 238 11ft 0kts
03-May-18 18:24 43.416624 -124.246595 238 11ft 0kts
03-May-18 18:25 43.416624 -124.246595 238 11ft 0kts
03-May-18 18:26 43.416624 -124.246595 238 11ft 0kts
03-May-18 18:27 43.416624 -124.246595 238 11ft 0kts
03-May-18 18:28 43.416624 -124.246595 238 11ft 0kts
03-May-18 18:29 43.416624 -124.246595 238 11ft 0kts
03-May-18 18:30 43.416624 -124.246595 238 11ft 0kts
03-May-18 18:31 43.416624 -124.246595 238 11ft 0kts
03-May-18 18:32 43.416624 -124.246595 238 11ft 0kts
03-May-18 18:33 43.416624 -124.246595 238 11ft 0kts
03-May-18 18:34 43.416624 -124.246595 238 11ft 0kts
03-May-18 18:35 43.416624 -124.246595 238 11ft 0kts
03-May-18 18:36 43.416624 -124.246595 238 11ft 0kts
03-May-18 18:37 43.416624 -124.246595 238 11ft 0kts
03-May-18 18:38 43.416624 -124.246595 238 11ft 0kts
03-May-18 18:39 43.416624 -124.246595 238 11ft 0kts
03-May-18 18:40 43.416624 -124.246595 238 11ft 0kts
03-May-18 18:41 43.416624 -124.246595 238 11ft 0kts
03-May-18 18:42 43.417389 -124.245740 331 11ft 7kts
03-May-18 18:43 43.418303 -124.249059 241 11ft 16kts
03-May-18 18:44 43.415729 -124.255393 243 11ft 19kts
03-May-18 18:45 43.414337 -124.259909 335 11ft 0kts
03-May-18 18:46 43.414338 -124.259910 335 11ft 0kts
03-May-18 18:47 43.415582 -124.258630 59 11ft 37kts
03-May-18 18:48 43.428196 -124.227411 63 1493ft 100kts
03-May-18 18:49 43.437322 -124.244131 215 2857ft 114kts
03-May-18 18:50 43.439753 -124.270266 2 4030ft 131kts
03-May-18 18:51 43.470625 -124.245695 105 4766ft 142kts
03-May-18 18:52 43.453160 -124.224671 232 5890ft 91kts
03-May-18 18:53 43.429298 -124.208495 140 6234ft 139kts
03-May-18 18:54 43.410137 -124.151743 130 5866ft 176kts
03-May-18 18:55 43.371791 -124.123181 176 6066ft 144kts
03-May-18 18:56 43.336874 -124.133169 198 6700ft 116kts
03-May-18 18:57 43.303005 -124.147152 198 7081ft 145kts
03-May-18 18:58 43.261522 -124.164889 198 7049ft 166kts
03-May-18 18:59 43.216164 -124.184436 198 7050ft 173kts
03-May-18 19:00 43.169202 -124.201755 190 7051ft 175kts
03-May-18 19:01 43.120412 -124.193969 168 7035ft 181kts
03-May-18 19:02 43.071546 -124.180626 188 7031ft 177kts
03-May-18 19:03 43.022532 -124.185788 184 7028ft 177kts
03-May-18 19:04 42.973458 -124.188306 184 7026ft 177kts
03-May-18 19:05 42.923904 -124.190558 183 7022ft 177kts
03-May-18 19:06 42.874647 -124.192709 183 7020ft 177kts
03-May-18 19:07 42.825249 -124.194894 183 7019ft 177kts
03-May-18 19:08 42.775746 -124.197091 183 7018ft 177kts
03-May-18 19:09 42.726438 -124.199280 183 7018ft 177kts
03-May-18 19:10 42.677129 -124.201447 183 7018ft 177kts
03-May-18 19:11 42.627761 -124.203610 183 7018ft 177kts
03-May-18 19:12 42.578831 -124.205780 183 7006ft 177kts
03-May-18 19:13 42.529395 -124.207957 183 7006ft 177kts
03-May-18 19:14 42.480054 -124.210130 183 7006ft 177kts
03-May-18 19:15 42.431426 -124.212292 183 7005ft 176kts
03-May-18 19:16 42.382115 -124.214421 182 7015ft 176kts
03-May-18 19:17 42.333058 -124.216606 182 7022ft 176kts
03-May-18 19:18 42.283921 -124.218778 182 7022ft 177kts
03-May-18 19:19 42.234623 -124.220869 182 7023ft 176kts
03-May-18 19:19 42.193711 -124.222695 182 7023ft 176kts
03-May-18 19:20 42.144604 -124.224860 182 7024ft 176kts
03-May-18 19:21 42.095345 -124.227001 182 7030ft 176kts
03-May-18 19:22 42.046206 -124.229158 182 7031ft 176kts
03-May-18 19:23 41.997165 -124.231291 182 7031ft 176kts
03-May-18 19:24 41.948000 -124.233408 182 7029ft 176kts
03-May-18 19:25 41.898789 -124.235511 182 7031ft 176kts
03-May-18 19:26 41.849709 -124.237616 182 7029ft 176kts
03-May-18 19:27 41.800416 -124.239760 182 7028ft 177kts
03-May-18 19:28 41.751987 -124.249779 195 7030ft 177kts
03-May-18 19:29 41.704345 -124.267459 194 7030ft 177kts
03-May-18 19:30 41.656675 -124.284567 194 7031ft 177kts
03-May-18 19:31 41.608867 -124.301628 194 7031ft 177kts
03-May-18 19:32 41.561129 -124.318594 194 7030ft 178kts
03-May-18 19:33 41.513216 -124.335630 194 7032ft 178kts
03-May-18 19:34 41.465113 -124.352717 194 7030ft 178kts
03-May-18 19:35 41.417104 -124.369698 194 7030ft 179kts
03-May-18 19:36 41.368796 -124.386766 194 7029ft 179kts
03-May-18 19:37 41.320555 -124.403812 194 7027ft 179kts
03-May-18 19:38 41.272260 -124.420836 194 7026ft 180kts
03-May-18 19:39 41.223264 -124.431917 163 7025ft 181kts
03-May-18 19:40 41.174986 -124.412090 167 7022ft 181kts
03-May-18 19:41 41.125985 -124.395335 166 7022ft 182kts
03-May-18 19:42 41.076793 -124.377929 166 7017ft 182kts
03-May-18 19:43 41.027754 -124.360502 166 7017ft 182kts
03-May-18 19:44 40.978469 -124.343020 166 7019ft 183kts
03-May-18 19:45 40.929063 -124.325497 166 7019ft 184kts
03-May-18 19:46 40.886392 -124.292450 131 6926ft 186kts
03-May-18 19:47 40.851619 -124.242140 135 6021ft 182kts
03-May-18 19:48 40.817249 -124.193028 134 5129ft 191kts
03-May-18 19:49 40.782582 -124.143445 134 5067ft 167kts
03-May-18 19:50 40.748843 -124.095415 134 5050ft 188kts
03-May-18 19:51 40.712843 -124.044219 134 5051ft 191kts
03-May-18 19:52 40.676615 -123.992759 133 5050ft 192kts
03-May-18 19:53 40.640080 -123.940967 134 5038ft 192kts
03-May-18 19:54 40.603676 -123.889469 134 5038ft 192kts
03-May-18 19:55 40.566619 -123.838337 143 5032ft 193kts
03-May-18 19:56 40.515097 -123.844691 198 4744ft 201kts
03-May-18 19:57 40.472776 -123.878975 249 4475ft 179kts
03-May-18 19:58 40.485241 -123.940236 292 3528ft 176kts
03-May-18 19:59 40.505282 -123.994476 293 2522ft 141kts
03-May-18 20:00 40.518657 -124.033917 289 2194ft 117kts
03-May-18 20:01 40.529509 -124.067041 288 1694ft 82kts
03-May-18 20:02 40.537101 -124.096223 280 960ft 84kts
03-May-18 20:03 40.547540 -124.122345 310 487ft 82kts
03-May-18 20:04 40.553892 -124.131472 308 358ft 11kts
03-May-18 20:05 40.555604 -124.134072 35 358ft 0kts

Navigation Log

Ident Type
Flight plan parsing failed, navigation log unavailable